createdAt,value
2022-11-23T00:02:13.485Z,1.18
2022-11-23T00:04:56.933Z,1.00
2022-11-23T00:07:40.452Z,1.14
2022-11-23T00:10:24.093Z,1.63
2022-11-23T00:13:08.023Z,1.51
2022-11-23T00:15:51.451Z,1.00
2022-11-23T00:18:35.254Z,1.31
2022-11-23T00:21:19.359Z,1.08
2022-11-23T00:24:02.972Z,0.84
2022-11-23T00:26:46.734Z,0.80
2022-11-23T00:29:30.466Z,0.89
2022-11-23T00:32:14.386Z,0.91
2022-11-23T00:34:57.865Z,0.77
2022-11-23T00:37:41.294Z,1.00
2022-11-23T00:40:24.825Z,0.95
2022-11-23T00:43:08.326Z,0.98
2022-11-23T00:46:07.397Z,1.05
2022-11-23T00:48:54.064Z,1.31
2022-11-23T00:51:38.842Z,1.20
2022-11-23T00:54:22.394Z,1.01
2022-11-23T00:57:06.007Z,1.35
2022-11-23T00:59:50.904Z,1.31
2022-11-23T01:02:36.239Z,1.31
2022-11-23T01:05:19.771Z,1.28
2022-11-23T01:08:04.674Z,1.42
2022-11-23T01:10:48.442Z,1.57
2022-11-23T01:13:32.814Z,1.71
2022-11-23T01:16:26.204Z,1.75
2022-11-23T01:19:17.423Z,1.67
2022-11-23T01:22:04.235Z,1.57
2022-11-23T01:24:47.751Z,1.57
2022-11-23T01:27:31.263Z,1.56
2022-11-23T01:30:16.158Z,1.65
2022-11-23T01:32:59.689Z,1.65
2022-11-23T01:35:43.134Z,1.60
2022-11-23T01:38:26.863Z,1.56
2022-11-23T01:41:18.690Z,1.68
2022-11-23T01:44:30.112Z,2.07
2022-11-23T01:47:13.841Z,1.96
2022-11-23T01:49:57.674Z,2.05
2022-11-23T01:52:41.189Z,1.93
2022-11-23T01:55:27.342Z,1.98
2022-11-23T01:58:17.567Z,1.65
2022-11-23T02:01:01.400Z,1.52
2022-11-23T02:03:48.508Z,1.65
2022-11-23T02:06:33.884Z,2.03
2022-11-23T02:09:21.640Z,1.96
2022-11-23T02:12:11.441Z,1.74
2022-11-23T02:14:54.914Z,1.61
2022-11-23T02:17:38.448Z,1.41
2022-11-23T02:20:23.583Z,1.46
2022-11-23T02:23:46.490Z,1.64
2022-11-23T02:26:34.289Z,1.91
2022-11-23T02:29:24.798Z,1.72
2022-11-23T02:32:08.264Z,2.11
2022-11-23T02:34:51.782Z,1.92
2022-11-23T02:37:35.926Z,1.83
2022-11-23T02:40:34.010Z,1.54
2022-11-23T02:43:17.466Z,1.56
2022-11-23T02:46:05.402Z,1.50
2022-11-23T02:48:48.846Z,1.72
2022-11-23T02:51:32.295Z,1.79
2022-11-23T02:54:19.272Z,1.63
2022-11-23T02:57:03.157Z,1.50
2022-11-23T02:59:46.667Z,1.42
2022-11-23T03:02:30.161Z,1.34
2022-11-23T03:05:13.592Z,1.63
2022-11-23T03:07:58.484Z,1.39
2022-11-23T03:10:42.020Z,1.32
2022-11-23T03:13:25.674Z,1.52
2022-11-23T03:16:09.913Z,1.37
2022-11-23T03:18:54.285Z,1.51
2022-11-23T03:21:39.347Z,1.60
2022-11-23T03:24:24.281Z,1.50
2022-11-23T03:27:09.390Z,1.14
2022-11-23T03:29:53.226Z,1.20
2022-11-23T03:32:37.876Z,1.63
2022-11-23T03:35:21.583Z,1.44
2022-11-23T03:38:29.079Z,1.50
2022-11-23T03:41:13.702Z,1.10
2022-11-23T03:44:06.134Z,0.95
2022-11-23T03:46:50.654Z,1.51
2022-11-23T03:49:34.304Z,1.18
2022-11-23T03:52:17.949Z,1.31
2022-11-23T03:55:01.733Z,1.44
2022-11-23T03:57:48.976Z,1.28
2022-11-23T04:00:32.756Z,1.30
2022-11-23T04:03:16.520Z,1.14
2022-11-23T04:06:24.019Z,1.07
2022-11-23T04:09:13.487Z,1.37
2022-11-23T04:12:15.311Z,0.89
2022-11-23T04:15:00.287Z,1.11
2022-11-23T04:17:44.510Z,1.12
2022-11-23T04:20:28.230Z,1.35
2022-11-23T04:23:13.709Z,0.95
2022-11-23T04:25:58.591Z,1.30
2022-11-23T04:28:42.075Z,1.14
2022-11-23T04:31:25.789Z,1.10
2022-11-23T04:34:20.841Z,0.92
2022-11-23T04:37:11.692Z,1.00
2022-11-23T04:39:57.243Z,0.93
2022-11-23T04:43:00.230Z,0.83
2022-11-23T04:45:46.057Z,0.98
2022-11-23T04:48:37.806Z,1.28
2022-11-23T04:51:21.802Z,1.18
2022-11-23T04:54:05.660Z,1.11
2022-11-23T04:56:57.462Z,1.00
2022-11-23T04:59:41.009Z,0.81
2022-11-23T05:02:24.672Z,1.05
2022-11-23T05:05:14.439Z,0.98
2022-11-23T05:07:59.264Z,1.06
2022-11-23T05:10:54.396Z,1.10
2022-11-23T05:13:37.831Z,0.99
2022-11-23T05:16:21.439Z,0.82
2022-11-23T05:19:04.978Z,0.73
2022-11-23T05:21:49.162Z,0.60
2022-11-23T05:24:33.091Z,0.65
2022-11-23T05:27:24.019Z,1.05
2022-11-23T05:30:08.426Z,0.75
2022-11-23T05:32:52.673Z,0.88
2022-11-23T05:35:38.087Z,0.68
2022-11-23T05:38:21.581Z,0.81
2022-11-23T05:41:06.321Z,0.88
2022-11-23T05:43:49.820Z,1.04
2022-11-23T05:46:38.500Z,0.90
2022-11-23T05:49:22.242Z,0.88
2022-11-23T05:52:06.160Z,0.85
2022-11-23T05:54:50.697Z,0.80
2022-11-23T05:57:34.162Z,0.60
2022-11-23T06:00:18.489Z,0.63
2022-11-23T06:03:11.417Z,0.48
2022-11-23T06:05:55.133Z,0.53
2022-11-23T06:08:49.103Z,0.53
2022-11-23T06:11:33.789Z,0.46
2022-11-23T06:14:23.550Z,0.52
2022-11-23T06:17:07.616Z,0.57
2022-11-23T06:19:55.987Z,0.68
2022-11-23T06:22:40.052Z,0.44
2022-11-23T06:25:25.073Z,0.44
2022-11-23T06:28:15.630Z,0.63
2022-11-23T06:31:06.695Z,0.35
2022-11-23T06:33:52.871Z,0.34
2022-11-23T06:36:36.445Z,0.37
2022-11-23T06:39:19.988Z,0.58
2022-11-23T06:42:23.789Z,0.39
2022-11-23T06:45:08.936Z,0.74
2022-11-23T06:47:56.862Z,0.97
2022-11-23T06:50:40.676Z,1.10
2022-11-23T06:53:24.221Z,0.94
2022-11-23T06:56:12.879Z,1.08
2022-11-23T06:58:56.594Z,1.05
2022-11-23T07:01:43.502Z,0.82
2022-11-23T07:04:27.935Z,0.69
2022-11-23T07:07:11.514Z,0.91
2022-11-23T07:10:06.882Z,0.58
2022-11-23T07:13:08.736Z,0.79
2022-11-23T07:15:53.022Z,0.98
2022-11-23T07:18:36.604Z,0.89
2022-11-23T07:21:20.684Z,0.79
2022-11-23T07:24:04.433Z,0.73
2022-11-23T07:26:47.883Z,0.39
2022-11-23T07:29:31.665Z,0.31
2022-11-23T07:32:15.642Z,0.17
2022-11-23T07:34:59.450Z,0.15
2022-11-23T07:37:45.610Z,0.17
2022-11-23T07:40:29.367Z,0.38
2022-11-23T07:43:15.576Z,0.30
2022-11-23T07:46:04.642Z,0.30
2022-11-23T07:48:48.267Z,0.54
2022-11-23T07:51:31.836Z,0.74
2022-11-23T07:54:16.515Z,0.71
2022-11-23T07:57:01.835Z,0.46
2022-11-23T07:59:45.635Z,0.44
2022-11-23T08:02:29.148Z,0.41
2022-11-23T08:05:14.402Z,0.64
2022-11-23T08:08:02.809Z,0.59
2022-11-23T08:10:51.387Z,0.52
2022-11-23T08:13:37.400Z,0.63
2022-11-23T08:16:20.856Z,0.71
2022-11-23T08:19:04.472Z,0.69
2022-11-23T08:21:47.953Z,0.97
2022-11-23T08:24:31.822Z,1.14
2022-11-23T08:27:15.646Z,1.32
2022-11-23T08:29:59.111Z,1.35
2022-11-23T08:32:42.618Z,1.30
2022-11-23T08:35:26.025Z,1.36
2022-11-23T08:38:11.010Z,1.33
2022-11-23T08:41:00.125Z,1.43
2022-11-23T08:43:43.674Z,1.38
2022-11-23T08:46:27.187Z,1.55
2022-11-23T08:49:10.627Z,1.54
2022-11-23T08:51:54.764Z,1.66
2022-11-23T08:54:38.202Z,1.72
2022-11-23T08:57:21.626Z,1.72
2022-11-23T09:00:07.102Z,2.01
2022-11-23T09:02:50.566Z,1.87
2022-11-23T09:05:33.986Z,1.82
2022-11-23T09:08:18.252Z,1.99
2022-11-23T09:11:04.945Z,2.02
2022-11-23T09:13:48.565Z,2.11
2022-11-23T09:16:34.107Z,2.24
2022-11-23T09:19:17.702Z,2.19
2022-11-23T09:22:01.124Z,2.28
2022-11-23T09:24:44.612Z,2.50
2022-11-23T09:27:28.178Z,2.48
2022-11-23T09:30:12.513Z,2.60
2022-11-23T09:32:58.027Z,2.58
2022-11-23T09:35:43.905Z,2.63
2022-11-23T09:38:51.546Z,2.79
2022-11-23T09:41:59.088Z,2.95
2022-11-23T09:45:01.377Z,3.18
2022-11-23T09:48:18.142Z,2.95
2022-11-23T09:51:20.060Z,3.31
2022-11-23T09:54:13.766Z,3.52
2022-11-23T09:57:01.578Z,3.80
2022-11-23T10:00:05.594Z,3.78
2022-11-23T10:02:49.703Z,3.97
2022-11-23T10:05:39.316Z,3.86
2022-11-23T10:08:37.790Z,4.04
2022-11-23T10:12:02.654Z,4.18
2022-11-23T10:15:11.415Z,4.48
2022-11-23T10:18:38.504Z,4.75
2022-11-23T10:22:03.873Z,4.86
2022-11-23T10:24:53.515Z,4.65
2022-11-23T10:27:36.978Z,4.72
2022-11-23T10:30:20.959Z,4.78
2022-11-23T10:33:16.343Z,4.97
2022-11-23T10:35:59.779Z,5.14
2022-11-23T10:38:43.426Z,5.27
2022-11-23T10:41:29.369Z,5.15
2022-11-23T10:44:32.088Z,5.18
2022-11-23T10:47:38.601Z,5.25
2022-11-23T10:50:37.910Z,4.98
2022-11-23T10:53:26.375Z,5.02
2022-11-23T10:56:14.541Z,5.19
2022-11-23T10:58:58.132Z,5.37
2022-11-23T11:01:41.647Z,5.56
2022-11-23T11:04:25.982Z,5.49
2022-11-23T11:07:30.873Z,5.85
2022-11-23T11:10:50.157Z,6.01
2022-11-23T11:13:47.212Z,6.05
2022-11-23T11:16:36.431Z,5.72
2022-11-23T11:19:35.712Z,5.87
2022-11-23T11:22:39.437Z,6.13
2022-11-23T11:25:35.767Z,5.92
2022-11-23T11:28:36.426Z,6.10
2022-11-23T11:31:43.941Z,5.92
2022-11-23T11:35:05.637Z,6.24
2022-11-23T11:38:00.490Z,6.14
2022-11-23T11:40:52.634Z,6.11
2022-11-23T11:43:40.618Z,6.29
2022-11-23T11:46:34.466Z,6.43
2022-11-23T11:49:44.164Z,6.28
2022-11-23T11:52:37.336Z,6.43
2022-11-23T11:55:34.416Z,6.44
2022-11-23T11:58:20.001Z,6.42
2022-11-23T12:01:38.083Z,6.51
2022-11-23T12:04:54.533Z,6.63
2022-11-23T12:08:16.620Z,6.89
2022-11-23T12:11:02.369Z,6.80
2022-11-23T12:13:47.076Z,7.02
2022-11-23T12:17:24.711Z,7.16
2022-11-23T12:20:34.698Z,7.17
2022-11-23T12:23:44.073Z,7.33
2022-11-23T12:26:49.189Z,7.17
2022-11-23T12:30:13.494Z,7.22
2022-11-23T12:33:34.426Z,7.14
2022-11-23T12:36:42.059Z,7.47
2022-11-23T12:39:46.624Z,8.33
2022-11-23T12:43:00.555Z,7.92
2022-11-23T12:46:30.297Z,7.73
2022-11-23T12:49:56.196Z,7.27
2022-11-23T12:53:30.413Z,7.49
2022-11-23T12:56:48.220Z,7.68
2022-11-23T12:59:49.476Z,7.84
2022-11-23T13:03:02.724Z,7.92
2022-11-23T13:06:12.495Z,8.02
2022-11-23T13:09:16.082Z,7.80
2022-11-23T13:12:47.882Z,7.52
2022-11-23T13:15:46.735Z,7.35
2022-11-23T13:19:15.536Z,7.49
2022-11-23T13:22:03.984Z,7.55
2022-11-23T13:25:08.832Z,7.45
2022-11-23T13:27:52.397Z,7.19
2022-11-23T13:31:07.698Z,7.21
2022-11-23T13:33:56.290Z,7.15
2022-11-23T13:37:11.131Z,7.44
2022-11-23T13:39:58.979Z,7.31
2022-11-23T13:42:42.642Z,7.19
2022-11-23T13:45:33.340Z,7.37
2022-11-23T13:48:48.897Z,7.20
2022-11-23T13:51:29.695Z,7.26
2022-11-23T13:54:23.720Z,7.28
2022-11-23T13:57:13.523Z,7.31
2022-11-23T14:00:52.979Z,7.38
2022-11-23T14:03:42.502Z,7.13
2022-11-23T14:07:13.377Z,7.19
2022-11-23T14:10:09.729Z,6.99
2022-11-23T14:13:17.305Z,6.47
2022-11-23T14:16:04.810Z,6.71
2022-11-23T14:19:12.754Z,6.69
2022-11-23T14:22:19.866Z,6.41
2022-11-23T14:25:18.912Z,6.19
2022-11-23T14:28:57.018Z,6.33
2022-11-23T14:32:29.820Z,6.50
2022-11-23T14:35:57.792Z,6.38
2022-11-23T14:39:32.088Z,6.22
2022-11-23T14:42:21.591Z,6.26
2022-11-23T14:45:12.057Z,6.34
2022-11-23T14:47:55.554Z,6.36
2022-11-23T14:50:39.850Z,6.40
2022-11-23T14:53:30.259Z,6.38
2022-11-23T14:56:35.022Z,6.19
2022-11-23T14:59:34.460Z,6.21
2022-11-23T15:02:44.867Z,6.26
2022-11-23T15:05:34.455Z,6.13
2022-11-23T15:08:29.925Z,6.09
2022-11-23T15:11:21.607Z,5.93
2022-11-23T15:14:25.681Z,6.06
2022-11-23T15:17:21.761Z,6.04
2022-11-23T15:20:05.743Z,5.67
2022-11-23T15:22:49.800Z,5.53
2022-11-23T15:25:33.391Z,5.43
2022-11-23T15:28:23.707Z,5.08
2022-11-23T15:31:31.089Z,5.05
2022-11-23T15:34:17.699Z,4.91
2022-11-23T15:37:02.168Z,5.11
2022-11-23T15:39:52.252Z,5.18
2022-11-23T15:42:38.713Z,4.84
2022-11-23T15:45:46.485Z,5.22
2022-11-23T15:48:35.990Z,5.19
2022-11-23T15:51:30.901Z,5.16
2022-11-23T15:54:25.836Z,5.18
2022-11-23T15:57:20.069Z,4.86
2022-11-23T16:00:06.644Z,4.75
2022-11-23T16:03:41.508Z,4.70
2022-11-23T16:06:41.151Z,4.68
2022-11-23T16:09:52.752Z,4.69
2022-11-23T16:12:50.231Z,4.68
2022-11-23T16:15:44.447Z,4.72
2022-11-23T16:18:28.772Z,4.60
2022-11-23T16:21:20.684Z,4.14
2022-11-23T16:24:06.151Z,3.91
2022-11-23T16:26:51.357Z,4.13
2022-11-23T16:29:38.043Z,3.94
2022-11-23T16:32:29.479Z,3.85
2022-11-23T16:35:21.923Z,3.99
2022-11-23T16:38:06.741Z,4.17
2022-11-23T16:40:51.844Z,4.09
2022-11-23T16:43:36.095Z,4.08
2022-11-23T16:46:21.620Z,3.66
2022-11-23T16:49:05.918Z,3.44
2022-11-23T16:51:57.240Z,3.46
2022-11-23T16:54:41.385Z,3.42
2022-11-23T16:57:30.167Z,3.21
2022-11-23T17:00:21.000Z,3.10
2022-11-23T17:03:04.622Z,3.06
2022-11-23T17:05:48.695Z,3.13
2022-11-23T17:08:32.230Z,3.40
2022-11-23T17:11:22.959Z,3.47
2022-11-23T17:14:07.548Z,3.83
2022-11-23T17:16:51.140Z,3.39
2022-11-23T17:19:34.951Z,3.27
2022-11-23T17:22:20.356Z,3.46
2022-11-23T17:25:05.483Z,3.31
2022-11-23T17:27:51.375Z,3.51
2022-11-23T17:30:34.899Z,3.57
2022-11-23T17:33:18.940Z,3.22
2022-11-23T17:36:03.042Z,3.23
2022-11-23T17:38:49.591Z,3.18
2022-11-23T17:41:33.529Z,2.90
2022-11-23T17:44:17.796Z,3.08
2022-11-23T17:47:02.421Z,3.05
2022-11-23T17:49:46.007Z,3.14
2022-11-23T17:52:29.564Z,3.12
2022-11-23T17:55:15.247Z,2.98
2022-11-23T17:57:59.236Z,3.22
2022-11-23T18:00:42.833Z,2.82
2022-11-23T18:03:26.465Z,2.83
2022-11-23T18:06:24.400Z,2.74
2022-11-23T18:09:09.477Z,2.99
2022-11-23T18:11:52.915Z,2.89
2022-11-23T18:14:36.789Z,2.74
2022-11-23T18:17:22.490Z,2.89
2022-11-23T18:20:08.409Z,2.75
2022-11-23T18:22:52.175Z,2.76
